createdAt,value
2018-10-11T00:01:10.486Z,86.00
2018-10-11T00:03:12.634Z,86.70
2018-10-11T00:05:14.886Z,86.40
2018-10-11T00:07:17.337Z,86.60
2018-10-11T00:09:19.588Z,87.00
2018-10-11T00:11:21.740Z,87.90
2018-10-11T00:13:23.997Z,88.00
2018-10-11T00:15:26.172Z,88.30
2018-10-11T00:17:28.291Z,88.20
2018-10-11T00:19:30.393Z,88.50
2018-10-11T00:21:32.507Z,88.70
2018-10-11T00:23:34.706Z,89.20
2018-10-11T00:25:36.865Z,89.30
2018-10-11T00:27:38.962Z,89.90
2018-10-11T00:29:41.181Z,89.70
2018-10-11T00:31:43.802Z,90.00
2018-10-11T00:33:46.676Z,90.00
2018-10-11T00:35:52.598Z,90.00
2018-10-11T00:37:55.084Z,90.10
2018-10-11T00:39:57.277Z,90.20
2018-10-11T00:41:59.667Z,90.00
2018-10-11T00:44:01.851Z,90.00
2018-10-11T00:46:03.984Z,90.10
2018-10-11T00:48:06.065Z,90.20
2018-10-11T00:50:08.247Z,90.40
2018-10-11T00:52:11.239Z,90.00
2018-10-11T00:54:30.852Z,90.30
2018-10-11T00:56:36.031Z,90.20
2018-10-11T00:58:38.441Z,90.30
2018-10-11T01:00:40.772Z,90.50
2018-10-11T01:02:43.199Z,90.30
2018-10-11T01:04:45.590Z,90.20
2018-10-11T01:06:47.851Z,90.50
2018-10-11T01:08:50.038Z,90.60
2018-10-11T01:10:52.426Z,90.60
2018-10-11T01:12:54.874Z,90.30
2018-10-11T01:14:57.096Z,90.50
2018-10-11T01:16:59.476Z,90.40
2018-10-11T01:19:02.012Z,90.50
2018-10-11T01:21:04.285Z,90.50
2018-10-11T01:23:06.481Z,90.50
2018-10-11T01:25:09.850Z,90.50
2018-10-11T01:27:12.837Z,90.60
2018-10-11T01:29:15.060Z,90.80
2018-10-11T01:31:21.614Z,91.00
2018-10-11T01:33:23.798Z,91.00
2018-10-11T01:35:25.929Z,90.90
2018-10-11T01:37:28.065Z,90.70
2018-10-11T01:39:30.347Z,90.60
2018-10-11T01:41:33.138Z,90.50
2018-10-11T01:43:38.066Z,90.50
2018-10-11T01:45:40.174Z,90.50
2018-10-11T01:47:42.293Z,90.50
2018-10-11T01:49:44.423Z,90.50
2018-10-11T01:51:46.590Z,90.60
2018-10-11T01:53:48.728Z,90.50
2018-10-11T01:55:50.907Z,90.50
2018-10-11T01:57:53.493Z,90.50
2018-10-11T01:59:55.597Z,90.50
2018-10-11T02:01:59.582Z,90.50
2018-10-11T02:04:01.788Z,90.70
2018-10-11T02:06:04.622Z,90.60
2018-10-11T02:08:06.743Z,90.60
2018-10-11T02:10:08.910Z,90.60
2018-10-11T02:12:10.992Z,90.50
2018-10-11T02:14:26.043Z,90.50
2018-10-11T02:16:28.153Z,90.40
2018-10-11T02:18:30.226Z,90.20
2018-10-11T02:20:32.359Z,90.10
2018-10-11T02:22:34.429Z,90.10
2018-10-11T02:24:36.545Z,90.10
2018-10-11T02:26:38.703Z,90.40
2018-10-11T02:28:40.793Z,90.30
2018-10-11T02:30:42.897Z,90.30
2018-10-11T02:32:46.009Z,90.50
2018-10-11T02:34:48.175Z,90.40
2018-10-11T02:36:50.273Z,90.60
2018-10-11T02:38:52.381Z,90.70
2018-10-11T02:40:56.272Z,90.60
2018-10-11T02:42:58.863Z,90.70
2018-10-11T02:45:00.998Z,91.00
2018-10-11T02:47:03.973Z,90.80
2018-10-11T02:49:06.192Z,91.00
2018-10-11T02:51:08.382Z,90.80
2018-10-11T02:53:10.478Z,90.60
2018-10-11T02:55:26.402Z,90.80
2018-10-11T02:57:40.241Z,90.50
2018-10-11T02:59:42.361Z,90.40
2018-10-11T03:01:44.510Z,90.70
2018-10-11T03:03:46.699Z,90.50
2018-10-11T03:05:48.990Z,90.50
2018-10-11T03:07:51.128Z,90.70
2018-10-11T03:09:53.296Z,90.90
2018-10-11T03:11:55.433Z,91.00
2018-10-11T03:13:57.576Z,91.00
2018-10-11T03:15:59.733Z,91.00
2018-10-11T03:18:01.830Z,90.90
2018-10-11T03:20:04.018Z,91.10
2018-10-11T03:22:06.218Z,91.30
2018-10-11T03:24:08.311Z,91.30
2018-10-11T03:26:10.450Z,91.50
2018-10-11T03:28:14.110Z,91.60
2018-10-11T03:30:16.365Z,91.60
2018-10-11T03:32:21.775Z,91.90
2018-10-11T03:34:24.565Z,91.90
2018-10-11T03:36:26.667Z,92.20
2018-10-11T03:38:28.745Z,91.90
2018-10-11T03:40:30.887Z,92.00
2018-10-11T03:42:33.089Z,92.10
2018-10-11T03:44:35.273Z,92.10
2018-10-11T03:46:37.552Z,92.20
2018-10-11T03:48:39.719Z,92.90
2018-10-11T03:50:41.922Z,92.50
2018-10-11T03:52:44.129Z,92.70
2018-10-11T03:54:46.340Z,92.60
2018-10-11T03:56:48.582Z,92.80
2018-10-11T03:58:50.740Z,93.00
2018-10-11T04:00:52.846Z,93.10
2018-10-11T04:02:54.914Z,93.40
2018-10-11T04:04:57.006Z,93.80
2018-10-11T04:06:59.145Z,93.50
2018-10-11T04:09:01.250Z,93.50
2018-10-11T04:11:03.386Z,94.00
2018-10-11T04:13:05.485Z,93.70
2018-10-11T04:15:07.621Z,94.00
2018-10-11T04:17:09.745Z,94.00
2018-10-11T04:19:11.867Z,94.00
2018-10-11T04:21:13.979Z,94.00
2018-10-11T04:23:21.945Z,94.00
2018-10-11T04:25:24.722Z,94.00
2018-10-11T04:27:26.822Z,94.10
2018-10-11T04:29:28.951Z,94.00
2018-10-11T04:31:31.050Z,94.20
2018-10-11T04:33:33.180Z,94.20
2018-10-11T04:35:35.293Z,94.30
2018-10-11T04:37:37.401Z,94.20
2018-10-11T04:39:39.750Z,94.30
2018-10-11T04:41:41.879Z,94.30
2018-10-11T04:43:43.978Z,94.70
2018-10-11T04:45:46.073Z,94.30
2018-10-11T04:47:48.205Z,94.50
2018-10-11T04:49:50.477Z,94.60
2018-10-11T04:51:52.591Z,94.80
2018-10-11T04:53:55.625Z,94.60
2018-10-11T04:55:57.742Z,94.80
2018-10-11T04:57:59.838Z,94.80
2018-10-11T05:00:01.995Z,94.90
2018-10-11T05:02:04.293Z,94.90
2018-10-11T05:04:06.814Z,95.00
2018-10-11T05:06:08.893Z,95.00
2018-10-11T05:08:11.565Z,94.90
2018-10-11T05:10:13.683Z,95.00
2018-10-11T05:12:15.752Z,95.00
2018-10-11T05:14:17.866Z,94.90
2018-10-11T05:16:19.989Z,95.00
2018-10-11T05:18:22.145Z,95.10
2018-10-11T05:20:24.214Z,95.00
2018-10-11T05:22:26.337Z,95.00
2018-10-11T05:24:28.426Z,94.90
2018-10-11T05:26:30.501Z,94.90
2018-10-11T05:28:32.586Z,95.00
2018-10-11T05:30:39.527Z,94.90
2018-10-11T05:32:42.002Z,95.00
2018-10-11T05:34:44.147Z,94.90
2018-10-11T05:36:46.225Z,94.90
2018-10-11T05:38:48.314Z,95.00
2018-10-11T05:40:50.413Z,94.90
2018-10-11T05:42:52.569Z,94.90
2018-10-11T05:45:03.205Z,95.00
2018-10-11T05:47:05.337Z,94.80
2018-10-11T05:49:07.422Z,94.90
2018-10-11T05:51:09.598Z,95.00
2018-10-11T05:53:11.695Z,94.90
2018-10-11T05:55:14.130Z,94.90
2018-10-11T05:57:16.277Z,95.00
2018-10-11T05:59:18.473Z,94.90
2018-10-11T06:01:20.738Z,95.00
2018-10-11T06:03:23.167Z,94.70
2018-10-11T06:05:25.336Z,94.80
2018-10-11T06:07:27.587Z,94.80
2018-10-11T06:09:29.650Z,94.50
2018-10-11T06:11:31.823Z,94.60
2018-10-11T06:13:34.094Z,94.50
2018-10-11T06:15:36.219Z,94.40
2018-10-11T06:17:38.354Z,94.40
2018-10-11T06:19:40.411Z,94.30
2018-10-11T06:21:42.761Z,94.30
2018-10-11T06:23:44.846Z,94.30
2018-10-11T06:25:46.905Z,94.00
2018-10-11T06:27:48.960Z,94.00
2018-10-11T06:29:51.041Z,93.70
2018-10-11T06:31:53.092Z,93.40
2018-10-11T06:33:55.182Z,93.40
2018-10-11T06:35:57.689Z,93.20
2018-10-11T06:37:59.866Z,93.10
2018-10-11T06:40:01.926Z,93.00
2018-10-11T06:42:04.042Z,92.70
2018-10-11T06:44:06.292Z,92.20
2018-10-11T06:46:08.387Z,91.80
2018-10-11T06:48:10.546Z,91.40
2018-10-11T06:50:12.751Z,91.50
2018-10-11T06:52:14.906Z,91.00
2018-10-11T06:54:17.070Z,90.60
2018-10-11T06:56:19.751Z,90.70
2018-10-11T06:58:21.818Z,90.40
2018-10-11T07:00:23.873Z,88.90
2018-10-11T07:02:25.997Z,89.70
2018-10-11T07:04:28.270Z,87.10
2018-10-11T07:06:30.338Z,84.50
2018-10-11T07:08:32.409Z,82.00
2018-10-11T07:10:34.491Z,78.90
2018-10-11T07:12:36.563Z,73.70
2018-10-11T07:14:38.635Z,73.30
2018-10-11T07:16:40.742Z,67.10
2018-10-11T07:18:42.821Z,63.50
2018-10-11T07:20:44.877Z,62.20
2018-10-11T07:22:47.051Z,58.80
2018-10-11T07:24:49.142Z,58.60
2018-10-11T07:26:51.258Z,57.50
2018-10-11T07:28:53.365Z,53.00
2018-10-11T07:30:55.522Z,50.20
2018-10-11T07:32:57.621Z,48.80
2018-10-11T07:34:59.763Z,46.80
2018-10-11T07:37:01.800Z,45.90
2018-10-11T07:39:07.257Z,42.80
2018-10-11T07:41:09.407Z,43.80
2018-10-11T07:43:11.409Z,40.60
2018-10-11T07:45:13.534Z,39.30
2018-10-11T07:47:15.672Z,38.20
2018-10-11T07:49:17.696Z,39.50
2018-10-11T07:51:19.810Z,40.50
2018-10-11T07:53:21.962Z,36.30
2018-10-11T07:55:24.051Z,34.90
2018-10-11T07:57:26.129Z,32.80
2018-10-11T07:59:28.307Z,30.50
2018-10-11T08:01:30.843Z,27.00
2018-10-11T08:03:33.095Z,28.90
2018-10-11T08:05:35.078Z,26.50
2018-10-11T08:07:37.239Z,25.40
2018-10-11T08:09:39.311Z,25.60
2018-10-11T08:11:41.409Z,24.80
2018-10-11T08:13:43.526Z,24.20
2018-10-11T08:15:45.645Z,23.50
2018-10-11T08:17:48.122Z,21.90
2018-10-11T08:19:49.895Z,20.70
2018-10-11T08:21:51.921Z,21.80
2018-10-11T08:23:54.196Z,21.60
2018-10-11T08:25:56.756Z,25.20
2018-10-11T08:27:58.538Z,25.40
2018-10-11T08:30:00.657Z,27.20
2018-10-11T08:32:02.808Z,31.00
2018-10-11T08:34:04.995Z,32.10
2018-10-11T08:36:07.436Z,32.80
2018-10-11T08:38:09.665Z,32.80
2018-10-11T08:40:11.751Z,36.40
2018-10-11T08:42:13.842Z,32.90
2018-10-11T08:44:15.966Z,33.60
2018-10-11T08:46:18.002Z,33.50
2018-10-11T08:48:20.121Z,36.30
2018-10-11T08:50:22.326Z,33.80
2018-10-11T08:52:24.289Z,31.90
2018-10-11T08:54:32.065Z,33.90
2018-10-11T08:56:34.113Z,33.40
2018-10-11T08:58:36.397Z,32.50
2018-10-11T09:00:38.462Z,30.00
2018-10-11T09:02:40.661Z,23.80
2018-10-11T09:04:43.013Z,19.90
2018-10-11T09:06:45.274Z,15.70
2018-10-11T09:08:47.530Z,14.00
2018-10-11T09:10:49.804Z,11.80
2018-10-11T09:12:51.846Z,7.90
2018-10-11T09:14:54.088Z,8.40
2018-10-11T09:16:56.231Z,6.00
2018-10-11T09:18:58.435Z,4.80
2018-10-11T09:21:00.607Z,3.50
2018-10-11T09:23:02.854Z,4.00
2018-10-11T09:25:04.946Z,1.00
2018-10-11T09:27:07.058Z,1.00
2018-10-11T09:29:09.162Z,1.00
2018-10-11T09:31:11.257Z,1.00
2018-10-11T09:33:13.373Z,1.00
2018-10-11T09:35:15.529Z,1.00
2018-10-11T09:37:17.636Z,1.00
2018-10-11T09:39:19.710Z,1.00
2018-10-11T09:41:21.826Z,1.00
2018-10-11T09:43:23.902Z,1.00
2018-10-11T09:45:26.033Z,1.00
2018-10-11T09:47:28.195Z,1.00
2018-10-11T09:49:30.283Z,1.00
2018-10-11T09:51:32.408Z,1.00
2018-10-11T09:53:34.509Z,1.00
2018-10-11T09:55:36.721Z,1.00
2018-10-11T09:57:39.000Z,1.00
2018-10-11T09:59:41.166Z,1.00
2018-10-11T10:01:45.897Z,1.00
2018-10-11T10:03:48.002Z,1.00
2018-10-11T10:05:50.136Z,1.00
2018-10-11T10:07:52.233Z,1.00
2018-10-11T10:09:54.392Z,1.00
2018-10-11T10:11:56.480Z,1.00
2018-10-11T10:13:58.561Z,1.00
2018-10-11T10:16:00.719Z,1.00
2018-10-11T10:18:02.825Z,1.00
2018-10-11T10:20:05.188Z,1.00
2018-10-11T10:22:07.354Z,1.00
2018-10-11T10:24:09.477Z,1.00
2018-10-11T10:26:11.642Z,1.00
2018-10-11T10:28:13.801Z,1.00
2018-10-11T10:30:21.871Z,1.00
2018-10-11T10:32:23.958Z,1.00
2018-10-11T10:34:26.181Z,1.00
2018-10-11T10:36:28.441Z,1.00
2018-10-11T10:38:30.608Z,1.00
2018-10-11T10:40:32.738Z,1.00
2018-10-11T10:42:34.840Z,1.00
2018-10-11T10:44:36.898Z,1.00
2018-10-11T10:46:38.969Z,1.00
2018-10-11T10:48:41.113Z,1.00
2018-10-11T10:50:43.149Z,1.00
2018-10-11T10:52:45.233Z,1.00
2018-10-11T10:54:47.315Z,1.00
2018-10-11T10:56:50.149Z,1.00
2018-10-11T10:58:53.069Z,1.00
2018-10-11T11:00:55.135Z,1.00
2018-10-11T11:02:57.226Z,1.00
2018-10-11T11:04:59.424Z,1.00
2018-10-11T11:07:01.570Z,1.00
2018-10-11T11:09:08.570Z,1.00
2018-10-11T11:11:10.674Z,1.00
2018-10-11T11:13:12.819Z,1.00
2018-10-11T11:15:14.956Z,1.00
2018-10-11T11:17:17.103Z,1.00
2018-10-11T11:19:19.188Z,1.00
2018-10-11T11:21:21.273Z,1.00
2018-10-11T11:23:23.374Z,1.00
2018-10-11T11:25:25.420Z,1.00
2018-10-11T11:27:27.826Z,1.00
2018-10-11T11:29:29.913Z,1.00
2018-10-11T11:31:32.390Z,1.00
2018-10-11T11:47:22.923Z,1.00
2018-10-11T11:49:28.736Z,1.00
2018-10-11T11:53:45.189Z,1.00
2018-10-11T11:55:47.282Z,1.00
2018-10-11T11:57:52.331Z,1.00
2018-10-11T11:59:56.679Z,1.00
2018-10-11T12:01:58.848Z,1.00
2018-10-11T12:04:00.935Z,1.00
2018-10-11T12:06:03.477Z,1.00
2018-10-11T12:08:05.653Z,1.00
2018-10-11T12:10:07.863Z,1.00
2018-10-11T12:12:21.608Z,1.00
2018-10-11T12:14:33.880Z,1.00
2018-10-11T12:16:36.963Z,1.00
2018-10-11T12:18:39.277Z,1.00
2018-10-11T12:20:43.469Z,1.00
2018-10-11T12:22:46.416Z,1.00
2018-10-11T12:26:57.635Z,1.00
2018-10-11T12:29:12.072Z,1.00
2018-10-11T12:31:16.665Z,1.00
2018-10-11T12:33:18.924Z,1.00
2018-10-11T12:35:26.452Z,1.00
2018-10-11T12:37:29.466Z,1.00
2018-10-11T12:39:32.919Z,1.00
2018-10-11T12:41:34.617Z,1.00
2018-10-11T12:43:37.715Z,1.00
2018-10-11T12:45:39.965Z,1.00
2018-10-11T12:47:42.078Z,1.00
2018-10-11T12:49:47.449Z,1.00
2018-10-11T12:51:46.510Z,1.00
2018-10-11T12:53:49.776Z,1.00
2018-10-11T12:55:51.976Z,1.00
2018-10-11T12:57:54.226Z,1.00
2018-10-11T12:59:56.405Z,1.00
2018-10-11T13:01:58.491Z,1.00
2018-10-11T13:04:01.190Z,1.00
2018-10-11T13:06:03.250Z,1.00
2018-10-11T13:08:05.365Z,1.00
2018-10-11T13:10:07.489Z,1.00
2018-10-11T13:12:09.585Z,1.00
2018-10-11T13:14:11.895Z,1.00
2018-10-11T13:16:14.114Z,1.00
2018-10-11T13:18:16.437Z,1.00
2018-10-11T13:20:18.635Z,1.00
2018-10-11T13:22:20.933Z,1.00
2018-10-11T13:24:23.063Z,1.00
2018-10-11T13:26:25.142Z,1.00
2018-10-11T13:28:27.491Z,1.00
2018-10-11T13:30:29.955Z,1.00
2018-10-11T13:32:32.210Z,1.00
2018-10-11T13:34:34.479Z,1.00
2018-10-11T13:36:36.769Z,1.00
2018-10-11T13:38:39.079Z,1.00
2018-10-11T13:40:42.602Z,1.00
2018-10-11T13:42:44.782Z,1.00
2018-10-11T13:44:57.024Z,1.00
2018-10-11T13:47:03.020Z,1.00
2018-10-11T13:49:05.996Z,1.00
2018-10-11T13:51:08.177Z,1.00
2018-10-11T13:53:11.765Z,1.00
2018-10-11T13:55:15.431Z,1.00
2018-10-11T13:59:35.628Z,1.00
2018-10-11T14:01:41.880Z,1.00
2018-10-11T14:03:44.896Z,1.00
2018-10-11T14:05:48.518Z,1.00
2018-10-11T14:07:50.675Z,1.00
2018-10-11T14:09:52.908Z,1.00
2018-10-11T14:11:55.174Z,1.00
2018-10-11T14:13:57.425Z,1.00
2018-10-11T14:15:59.568Z,1.00
2018-10-11T14:18:07.630Z,1.00
2018-10-11T14:20:05.900Z,1.00
2018-10-11T14:22:08.780Z,1.00
2018-10-11T14:24:11.008Z,1.00
2018-10-11T14:26:13.149Z,1.00
2018-10-11T14:28:16.504Z,1.00
2018-10-11T14:30:18.721Z,1.00
2018-10-11T14:32:20.858Z,1.00
2018-10-11T14:34:22.999Z,1.00
2018-10-11T14:36:25.321Z,1.00
2018-10-11T14:38:30.518Z,1.00
2018-10-11T14:40:32.710Z,1.00
2018-10-11T14:42:35.548Z,1.00
2018-10-11T14:45:16.915Z,1.00
2018-10-11T14:47:19.140Z,1.00
2018-10-11T14:49:21.895Z,1.00
2018-10-11T14:51:24.198Z,1.00
2018-10-11T14:53:26.257Z,1.00
2018-10-11T14:55:34.636Z,1.00
2018-10-11T14:57:36.758Z,1.00
2018-10-11T14:59:40.531Z,1.00
2018-10-11T15:01:43.256Z,1.00
2018-10-11T15:03:45.510Z,1.00
2018-10-11T15:05:47.725Z,1.00
2018-10-11T15:07:49.955Z,1.00
2018-10-11T15:09:52.202Z,1.00
2018-10-11T15:11:54.561Z,1.00
2018-10-11T15:13:56.801Z,1.00
2018-10-11T15:15:59.021Z,1.00
2018-10-11T15:18:01.403Z,1.00
2018-10-11T15:20:03.322Z,1.00
2018-10-11T15:22:05.565Z,1.00
2018-10-11T15:24:07.752Z,1.00
2018-10-11T15:26:09.995Z,1.00
2018-10-11T15:28:12.255Z,1.00
2018-10-11T15:30:14.478Z,1.00
2018-10-11T15:32:16.763Z,1.00
2018-10-11T15:34:18.991Z,1.00
2018-10-11T15:36:21.277Z,1.00
2018-10-11T15:38:23.529Z,1.00
2018-10-11T15:40:25.704Z,1.00
2018-10-11T15:42:28.228Z,1.00
2018-10-11T15:44:30.584Z,1.00
2018-10-11T15:46:33.053Z,1.00
2018-10-11T15:48:35.349Z,1.00
2018-10-11T15:50:37.576Z,1.00
2018-10-11T15:52:39.847Z,1.00
2018-10-11T15:54:42.768Z,1.00
2018-10-11T15:56:44.908Z,1.00
2018-10-11T15:58:50.215Z,1.00
2018-10-11T16:00:52.533Z,1.00
2018-10-11T16:02:57.753Z,1.00
2018-10-11T16:04:59.927Z,1.00
2018-10-11T16:09:15.733Z,1.00
2018-10-11T16:11:17.746Z,1.00
2018-10-11T16:13:19.885Z,1.00
2018-10-11T16:15:22.251Z,1.00
2018-10-11T16:17:24.378Z,1.00
2018-10-11T16:19:26.493Z,1.00
2018-10-11T16:21:29.129Z,1.00
2018-10-11T16:23:31.226Z,1.00
2018-10-11T16:25:33.529Z,1.00
2018-10-11T16:27:45.749Z,1.00
2018-10-11T16:29:48.169Z,1.00
2018-10-11T16:31:50.274Z,1.00
2018-10-11T16:33:52.366Z,1.00
2018-10-11T16:36:04.110Z,1.10
2018-10-11T16:38:06.266Z,1.00
2018-10-11T16:40:08.412Z,1.00
2018-10-11T16:42:10.529Z,1.00
2018-10-11T16:44:12.657Z,1.00
2018-10-11T16:46:14.826Z,1.80
2018-10-11T16:48:16.949Z,1.00
2018-10-11T16:50:19.123Z,1.90
2018-10-11T16:52:21.299Z,1.60
2018-10-11T16:54:23.454Z,1.80
2018-10-11T16:56:25.562Z,2.70
2018-10-11T16:58:27.676Z,2.20
2018-10-11T17:00:29.955Z,2.30
2018-10-11T17:02:32.110Z,2.20
2018-10-11T17:04:34.397Z,2.80
2018-10-11T17:06:36.462Z,2.80
2018-10-11T17:08:38.801Z,2.80
2018-10-11T17:10:40.989Z,3.10
2018-10-11T17:12:43.163Z,3.30
2018-10-11T17:14:45.332Z,3.60
2018-10-11T17:16:47.671Z,4.10
2018-10-11T17:18:49.873Z,4.10
2018-10-11T17:20:52.216Z,4.60
2018-10-11T17:22:54.439Z,4.50
2018-10-11T17:24:57.263Z,4.70
2018-10-11T17:27:00.046Z,4.50
2018-10-11T17:29:02.556Z,5.20
2018-10-11T17:31:06.754Z,5.60
2018-10-11T17:33:09.379Z,5.30
2018-10-11T17:35:11.995Z,6.60
2018-10-11T17:37:14.502Z,6.60
2018-10-11T17:39:21.095Z,6.70
2018-10-11T17:41:24.069Z,6.60
2018-10-11T17:43:26.774Z,6.30
2018-10-11T17:45:29.473Z,6.90
2018-10-11T17:47:33.408Z,6.70
2018-10-11T17:49:37.432Z,6.10
2018-10-11T17:51:42.378Z,6.70
2018-10-11T17:53:46.168Z,7.10
2018-10-11T17:56:08.452Z,6.70
2018-10-11T17:58:12.071Z,7.30
2018-10-11T18:00:30.365Z,7.10
2018-10-11T18:02:33.496Z,7.50
2018-10-11T18:04:36.144Z,8.00
2018-10-11T18:06:42.969Z,8.70
2018-10-11T18:08:45.448Z,8.80
2018-10-11T18:10:48.100Z,8.80
2018-10-11T18:12:50.646Z,9.30
2018-10-11T18:14:53.174Z,9.70
2018-10-11T18:16:55.727Z,10.20
2018-10-11T18:18:58.432Z,10.70
2018-10-11T18:21:01.244Z,10.60
2018-10-11T18:23:03.769Z,11.20
2018-10-11T18:25:06.470Z,10.70
2018-10-11T18:27:09.237Z,10.70
2018-10-11T18:29:12.944Z,10.70
2018-10-11T18:31:17.614Z,11.20
2018-10-11T18:33:22.699Z,12.40
2018-10-11T18:35:27.108Z,14.30
2018-10-11T18:37:29.470Z,15.20
2018-10-11T18:39:31.830Z,16.60
2018-10-11T18:41:34.299Z,17.70
2018-10-11T18:43:36.855Z,17.00
2018-10-11T18:45:39.282Z,16.60
2018-10-11T18:47:41.615Z,16.60
2018-10-11T18:49:44.304Z,18.50
2018-10-11T18:51:46.759Z,18.50
2018-10-11T18:53:50.145Z,18.50
2018-10-11T18:55:59.288Z,19.70
2018-10-11T18:58:02.225Z,20.20
2018-10-11T19:00:05.355Z,20.10
2018-10-11T19:02:08.098Z,20.50
2018-10-11T19:04:11.178Z,20.80
2018-10-11T19:06:14.150Z,21.20
2018-10-11T19:08:59.209Z,22.40
2018-10-11T19:11:02.473Z,23.80
2018-10-11T19:13:05.051Z,23.40
2018-10-11T19:15:08.266Z,23.70
2018-10-11T19:17:10.833Z,23.10
2018-10-11T19:19:13.748Z,23.70
2018-10-11T19:21:17.116Z,23.60
2018-10-11T19:23:20.545Z,23.60
2018-10-11T19:25:23.271Z,22.90
2018-10-11T19:27:26.141Z,21.60
2018-10-11T19:29:29.096Z,22.20
2018-10-11T19:31:31.684Z,23.30
2018-10-11T19:33:34.663Z,23.90
2018-10-11T19:35:37.278Z,23.20
2018-10-11T19:37:41.323Z,22.00
2018-10-11T19:39:44.566Z,23.30
2018-10-11T19:41:47.152Z,21.30
2018-10-11T19:43:50.132Z,18.90
2018-10-11T19:45:52.703Z,18.40
2018-10-11T19:47:56.096Z,16.40
2018-10-11T19:49:58.923Z,16.90
2018-10-11T19:52:01.592Z,17.50
2018-10-11T19:54:04.187Z,17.40
2018-10-11T19:56:07.135Z,16.20
2018-10-11T19:58:10.153Z,16.40
2018-10-11T20:00:12.930Z,17.30
2018-10-11T20:02:15.332Z,17.40
2018-10-11T20:04:18.664Z,18.10
2018-10-11T20:06:21.652Z,18.40
2018-10-11T20:08:24.256Z,18.90
2018-10-11T20:10:26.987Z,18.90
2018-10-11T20:12:29.789Z,18.10
2018-10-11T20:14:32.148Z,18.10
2018-10-11T20:16:34.400Z,18.50
2018-10-11T20:18:36.958Z,17.90
2018-10-11T20:20:39.605Z,18.90
2018-10-11T20:22:42.083Z,18.80
2018-10-11T20:24:44.544Z,18.00
2018-10-11T20:26:46.904Z,18.10
2018-10-11T20:31:17.349Z,18.90
2018-10-11T20:33:19.765Z,19.30
2018-10-11T20:35:22.196Z,20.30
2018-10-11T20:37:24.538Z,19.80
2018-10-11T20:39:26.784Z,19.20
2018-10-11T20:41:29.070Z,19.70
2018-10-11T20:43:31.415Z,19.80
2018-10-11T20:45:33.629Z,19.50
2018-10-11T20:47:35.959Z,19.60
2018-10-11T20:49:38.372Z,19.70
2018-10-11T20:51:40.680Z,19.40
2018-10-11T20:53:42.814Z,20.10
2018-10-11T20:55:45.032Z,20.40
2018-10-11T20:57:55.948Z,20.60
2018-10-11T20:59:58.928Z,20.50
2018-10-11T21:02:01.637Z,20.70
2018-10-11T21:04:04.235Z,20.60
2018-10-11T21:06:06.532Z,20.80
2018-10-11T21:08:13.483Z,20.90
2018-10-11T21:10:15.780Z,20.90
2018-10-11T21:12:18.016Z,21.50
2018-10-11T21:14:20.305Z,21.70
2018-10-11T21:16:22.698Z,22.30
2018-10-11T21:18:24.956Z,22.30
2018-10-11T21:20:27.449Z,22.70
2018-10-11T21:22:29.842Z,22.40
2018-10-11T21:24:32.039Z,23.80
2018-10-11T21:26:34.344Z,23.70
2018-10-11T21:28:36.886Z,23.50
2018-10-11T21:31:07.199Z,24.00
2018-10-11T21:33:10.376Z,24.50
2018-10-11T21:35:12.717Z,24.00
2018-10-11T21:37:53.618Z,24.30
2018-10-11T21:39:55.979Z,24.00
2018-10-11T21:41:58.343Z,23.60
2018-10-11T21:44:00.720Z,23.60
2018-10-11T21:46:03.011Z,23.40
2018-10-11T21:48:05.281Z,23.60
2018-10-11T21:50:07.639Z,24.10
2018-10-11T21:52:10.261Z,23.90
2018-10-11T21:54:12.588Z,23.20
2018-10-11T21:56:14.853Z,23.00
2018-10-11T21:58:17.236Z,23.30
2018-10-11T22:00:24.051Z,23.20
2018-10-11T22:02:26.424Z,23.50
2018-10-11T22:04:28.804Z,23.40
2018-10-11T22:06:31.356Z,23.50
2018-10-11T22:08:33.769Z,22.80
2018-10-11T22:10:36.048Z,22.80
2018-10-11T22:12:38.335Z,22.80
2018-10-11T22:14:40.685Z,22.90
2018-10-11T22:16:43.098Z,23.30
2018-10-11T22:18:45.550Z,23.30
2018-10-11T22:20:48.069Z,23.10
2018-10-11T22:22:50.352Z,23.70
2018-10-11T22:24:52.691Z,23.40
2018-10-11T22:26:54.939Z,23.20
2018-10-11T22:28:57.255Z,23.30
2018-10-11T22:30:59.496Z,23.60
2018-10-11T22:33:01.728Z,23.90
2018-10-11T22:35:04.022Z,24.80
2018-10-11T22:37:06.210Z,25.30
2018-10-11T22:39:09.539Z,25.50
2018-10-11T22:41:11.915Z,25.90
2018-10-11T22:43:14.147Z,26.80
2018-10-11T22:45:16.335Z,26.80
2018-10-11T22:47:18.587Z,26.80
2018-10-11T22:49:20.761Z,27.50
2018-10-11T22:51:23.009Z,26.10
2018-10-11T22:53:25.266Z,26.40
2018-10-11T22:55:30.507Z,27.30
2018-10-11T22:57:32.770Z,26.70
2018-10-11T22:59:35.255Z,26.70
2018-10-11T23:01:37.607Z,26.40
2018-10-11T23:03:39.801Z,26.20
2018-10-11T23:05:41.958Z,26.20
2018-10-11T23:07:44.179Z,26.40
2018-10-11T23:09:46.618Z,26.30
2018-10-11T23:11:49.111Z,26.30
2018-10-11T23:13:51.452Z,26.50
2018-10-11T23:15:53.910Z,27.20
2018-10-11T23:17:56.321Z,27.20
2018-10-11T23:19:59.058Z,27.50
2018-10-11T23:22:01.570Z,27.20
2018-10-11T23:24:04.066Z,27.40
2018-10-11T23:26:06.314Z,27.60
2018-10-11T23:28:08.726Z,27.70
2018-10-11T23:30:11.943Z,27.30
2018-10-11T23:32:14.752Z,27.20
2018-10-11T23:34:17.306Z,27.00
2018-10-11T23:36:19.674Z,27.10
2018-10-11T23:38:22.552Z,27.30
2018-10-11T23:42:32.953Z,27.90
2018-10-11T23:44:35.412Z,27.60
2018-10-11T23:46:37.803Z,27.60
2018-10-11T23:48:40.398Z,28.00
2018-10-11T23:50:42.997Z,27.70
2018-10-11T23:52:45.456Z,28.10
2018-10-11T23:54:47.822Z,27.60
2018-10-11T23:56:50.305Z,27.90
2018-10-11T23:58:53.180Z,28.60
